createdAt,value
2022-11-21T00:00:54.185Z,7.80
2022-11-21T00:03:21.016Z,7.82
2022-11-21T00:05:49.220Z,7.80
2022-11-21T00:08:19.296Z,7.79
2022-11-21T00:10:46.251Z,8.01
2022-11-21T00:13:21.315Z,8.04
2022-11-21T00:15:48.282Z,8.00
2022-11-21T00:18:15.616Z,8.03
2022-11-21T00:20:45.896Z,8.02
2022-11-21T00:23:12.516Z,8.00
2022-11-21T00:25:40.277Z,7.87
2022-11-21T00:28:06.997Z,7.87
2022-11-21T00:30:33.735Z,7.70
2022-11-21T00:33:00.866Z,7.64
2022-11-21T00:35:27.806Z,7.59
2022-11-21T00:37:54.457Z,7.46
2022-11-21T00:40:21.324Z,7.38
2022-11-21T00:42:48.021Z,7.34
2022-11-21T00:45:18.380Z,7.23
2022-11-21T00:47:48.010Z,7.14
2022-11-21T00:50:14.716Z,7.09
2022-11-21T00:52:41.452Z,7.14
2022-11-21T00:55:08.408Z,7.14
2022-11-21T00:57:35.096Z,7.13
2022-11-21T01:00:01.725Z,7.05
2022-11-21T01:02:28.461Z,7.06
2022-11-21T01:04:55.107Z,7.06
2022-11-21T01:07:22.021Z,7.07
2022-11-21T01:09:48.947Z,7.14
2022-11-21T01:12:15.708Z,7.16
2022-11-21T01:14:42.444Z,7.08
2022-11-21T01:17:09.172Z,7.04
2022-11-21T01:19:37.058Z,7.02
2022-11-21T01:22:03.898Z,6.97
2022-11-21T01:24:30.718Z,7.00
2022-11-21T01:26:57.491Z,6.89
2022-11-21T01:29:24.362Z,6.88
2022-11-21T01:31:51.143Z,6.83
2022-11-21T01:34:18.638Z,6.72
2022-11-21T01:36:45.450Z,6.65
2022-11-21T01:39:12.808Z,6.57
2022-11-21T01:41:42.640Z,6.46
2022-11-21T01:44:24.305Z,6.44
2022-11-21T01:46:52.634Z,6.45
2022-11-21T01:49:27.459Z,6.52
2022-11-21T01:52:04.817Z,6.52
2022-11-21T01:54:43.321Z,6.58
2022-11-21T01:57:15.807Z,6.61
2022-11-21T02:00:01.529Z,6.59
2022-11-21T02:02:31.654Z,6.56
2022-11-21T02:05:00.623Z,6.54
2022-11-21T02:07:30.829Z,6.50
2022-11-21T02:10:00.881Z,6.43
2022-11-21T02:12:58.681Z,6.31
2022-11-21T02:15:27.918Z,6.31
2022-11-21T02:17:55.150Z,6.37
2022-11-21T02:20:28.096Z,6.24
2022-11-21T02:23:02.117Z,6.26
2022-11-21T02:25:35.506Z,6.28
2022-11-21T02:28:05.930Z,6.30
2022-11-21T02:30:37.490Z,6.21
2022-11-21T02:33:04.586Z,6.28
2022-11-21T02:35:31.876Z,6.37
2022-11-21T02:38:00.338Z,6.42
2022-11-21T02:40:34.500Z,6.59
2022-11-21T02:43:20.072Z,6.67
2022-11-21T02:45:46.971Z,6.66
2022-11-21T02:48:13.751Z,6.76
2022-11-21T02:50:43.007Z,6.74
2022-11-21T02:53:15.100Z,6.67
2022-11-21T02:55:43.255Z,6.64
2022-11-21T02:58:10.908Z,6.57
2022-11-21T03:00:39.478Z,6.50
2022-11-21T03:03:06.752Z,6.48
2022-11-21T03:05:33.518Z,6.45
2022-11-21T03:08:00.225Z,6.42
2022-11-21T03:10:27.234Z,6.46
2022-11-21T03:13:01.036Z,6.42
2022-11-21T03:15:34.090Z,6.49
2022-11-21T03:18:02.789Z,6.49
2022-11-21T03:20:34.728Z,6.47
2022-11-21T03:23:01.982Z,6.41
2022-11-21T03:25:29.179Z,6.36
2022-11-21T03:27:55.837Z,6.30
2022-11-21T03:30:24.761Z,6.21
2022-11-21T03:32:54.700Z,6.25
2022-11-21T03:35:21.678Z,6.20
2022-11-21T03:37:48.761Z,6.27
2022-11-21T03:40:15.365Z,6.32
2022-11-21T03:42:42.240Z,6.33
2022-11-21T03:45:09.358Z,6.42
2022-11-21T03:47:36.051Z,6.48
2022-11-21T03:50:03.157Z,6.48
2022-11-21T03:52:29.806Z,6.53
2022-11-21T03:54:56.380Z,6.58
2022-11-21T03:57:22.996Z,6.54
2022-11-21T03:59:49.688Z,6.50
2022-11-21T04:02:16.378Z,6.52
2022-11-21T04:04:42.922Z,6.55
2022-11-21T04:07:09.760Z,6.53
2022-11-21T04:09:36.377Z,6.43
2022-11-21T04:12:07.545Z,6.33
2022-11-21T04:14:34.517Z,6.35
2022-11-21T04:17:03.190Z,6.26
2022-11-21T04:19:29.804Z,6.23
2022-11-21T04:21:56.389Z,6.21
2022-11-21T04:24:23.130Z,6.20
2022-11-21T04:26:49.919Z,6.16
2022-11-21T04:29:17.028Z,6.23
2022-11-21T04:31:43.652Z,6.18
2022-11-21T04:34:10.350Z,6.21
2022-11-21T04:36:36.931Z,6.23
2022-11-21T04:39:03.825Z,6.28
2022-11-21T04:41:30.918Z,6.30
2022-11-21T04:43:57.488Z,6.30
2022-11-21T04:46:24.063Z,6.27
2022-11-21T04:48:51.025Z,6.30
2022-11-21T04:51:17.618Z,6.27
2022-11-21T04:53:44.241Z,6.26
2022-11-21T04:56:11.418Z,6.31
2022-11-21T04:58:38.015Z,6.30
2022-11-21T05:01:09.202Z,6.38
2022-11-21T05:03:36.861Z,6.42
2022-11-21T05:06:03.826Z,6.39
2022-11-21T05:08:30.574Z,6.41
2022-11-21T05:11:15.963Z,6.49
2022-11-21T05:13:42.611Z,6.59
2022-11-21T05:16:09.218Z,6.57
2022-11-21T05:18:35.888Z,6.50
2022-11-21T05:21:03.728Z,6.57
2022-11-21T05:23:30.473Z,6.63
2022-11-21T05:25:57.104Z,6.69
2022-11-21T05:28:23.704Z,6.65
2022-11-21T05:30:50.247Z,6.70
2022-11-21T05:33:16.892Z,6.69
2022-11-21T05:35:43.885Z,6.77
2022-11-21T05:38:10.967Z,6.75
2022-11-21T05:40:37.658Z,6.80
2022-11-21T05:43:22.829Z,6.79
2022-11-21T05:45:52.635Z,6.76
2022-11-21T05:48:19.271Z,6.80
2022-11-21T05:50:49.723Z,6.79
2022-11-21T05:53:17.374Z,6.82
2022-11-21T05:55:44.122Z,6.81
2022-11-21T05:58:11.070Z,6.76
2022-11-21T06:00:38.366Z,6.72
2022-11-21T06:03:24.927Z,6.64
2022-11-21T06:05:51.782Z,6.62
2022-11-21T06:08:18.449Z,6.64
2022-11-21T06:10:45.106Z,6.72
2022-11-21T06:13:23.842Z,6.76
2022-11-21T06:16:04.734Z,6.80
2022-11-21T06:18:34.320Z,6.71
2022-11-21T06:21:10.330Z,6.64
2022-11-21T06:23:37.164Z,6.63
2022-11-21T06:26:07.470Z,6.63
2022-11-21T06:28:36.506Z,6.61
2022-11-21T06:31:15.383Z,6.60
2022-11-21T06:33:43.485Z,6.57
2022-11-21T06:36:12.832Z,6.59
2022-11-21T06:38:39.946Z,6.52
2022-11-21T06:41:14.860Z,6.40
2022-11-21T06:43:42.770Z,6.40
2022-11-21T06:46:09.638Z,6.32
2022-11-21T06:48:37.470Z,6.44
2022-11-21T06:51:06.300Z,6.50
2022-11-21T06:53:36.281Z,6.44
2022-11-21T06:56:03.829Z,6.44
2022-11-21T06:58:31.406Z,6.34
2022-11-21T07:00:58.703Z,6.47
2022-11-21T07:03:25.632Z,6.42
2022-11-21T07:05:52.668Z,6.45
2022-11-21T07:08:19.341Z,6.43
2022-11-21T07:11:10.070Z,6.43
2022-11-21T07:13:32.965Z,6.47
2022-11-21T07:16:05.303Z,6.44
2022-11-21T07:18:32.637Z,6.46
2022-11-21T07:21:01.427Z,6.46
2022-11-21T07:23:28.931Z,6.43
2022-11-21T07:25:55.468Z,6.53
2022-11-21T07:28:22.172Z,6.58
2022-11-21T07:30:49.025Z,6.56
2022-11-21T07:33:15.706Z,6.60
2022-11-21T07:35:43.369Z,6.59
2022-11-21T07:38:10.045Z,6.59
2022-11-21T07:40:36.622Z,6.61
2022-11-21T07:43:09.579Z,6.59
2022-11-21T07:45:38.124Z,6.57
2022-11-21T07:48:07.230Z,6.53
2022-11-21T07:50:34.257Z,6.47
2022-11-21T07:53:03.220Z,6.54
2022-11-21T07:55:30.493Z,6.41
2022-11-21T07:58:01.524Z,6.37
2022-11-21T08:00:30.340Z,6.30
2022-11-21T08:02:57.052Z,6.30
2022-11-21T08:05:23.856Z,6.23
2022-11-21T08:07:50.933Z,6.21
2022-11-21T08:10:18.100Z,6.16
2022-11-21T08:12:45.377Z,6.08
2022-11-21T08:15:12.425Z,6.13
2022-11-21T08:17:41.618Z,6.09
2022-11-21T08:20:08.990Z,6.10
2022-11-21T08:22:40.738Z,6.06
2022-11-21T08:25:09.602Z,6.09
2022-11-21T08:27:38.406Z,6.09
2022-11-21T08:30:10.226Z,6.02
2022-11-21T08:32:36.854Z,6.07
2022-11-21T08:35:03.753Z,6.15
2022-11-21T08:37:30.419Z,6.06
2022-11-21T08:39:59.046Z,6.12
2022-11-21T08:42:26.031Z,6.13
2022-11-21T08:44:52.642Z,6.15
2022-11-21T08:47:20.598Z,6.20
2022-11-21T08:49:47.695Z,6.21
2022-11-21T08:52:15.250Z,6.29
2022-11-21T08:54:42.178Z,6.32
2022-11-21T08:57:08.755Z,6.32
2022-11-21T08:59:35.511Z,6.40
2022-11-21T09:02:02.332Z,6.47
2022-11-21T09:04:29.119Z,6.43
2022-11-21T09:06:56.045Z,6.44
2022-11-21T09:09:25.622Z,6.50
2022-11-21T09:11:52.726Z,6.54
2022-11-21T09:14:38.065Z,6.58
2022-11-21T09:17:23.174Z,6.61
2022-11-21T09:19:49.739Z,6.70
2022-11-21T09:22:16.921Z,6.78
2022-11-21T09:24:43.802Z,6.82
2022-11-21T09:27:10.364Z,6.89
2022-11-21T09:29:36.931Z,6.85
2022-11-21T09:32:03.664Z,6.89
2022-11-21T09:34:31.797Z,6.92
2022-11-21T09:36:58.602Z,7.02
2022-11-21T09:39:25.625Z,6.99
2022-11-21T09:42:36.965Z,7.11
2022-11-21T09:45:06.841Z,7.16
2022-11-21T09:47:37.037Z,7.25
2022-11-21T09:50:12.484Z,7.38
2022-11-21T09:53:12.788Z,7.29
2022-11-21T09:55:47.340Z,7.46
2022-11-21T09:58:26.649Z,7.45
2022-11-21T10:00:54.706Z,7.51
2022-11-21T10:03:24.124Z,7.54
2022-11-21T10:06:12.093Z,7.63
2022-11-21T10:08:43.312Z,7.71
2022-11-21T10:11:58.977Z,7.67
2022-11-21T10:14:34.698Z,7.87
2022-11-21T10:17:26.590Z,8.05
2022-11-21T10:20:19.550Z,8.18
2022-11-21T10:23:00.961Z,8.16
2022-11-21T10:25:38.639Z,8.09
2022-11-21T10:28:15.997Z,8.12
2022-11-21T10:30:45.447Z,8.15
2022-11-21T10:33:36.406Z,8.06
2022-11-21T10:36:17.338Z,8.15
2022-11-21T10:38:44.823Z,8.17
2022-11-21T10:41:18.766Z,8.34
2022-11-21T10:44:28.115Z,8.45
2022-11-21T10:47:00.126Z,8.62
2022-11-21T10:49:29.949Z,8.73
2022-11-21T10:52:07.586Z,8.82
2022-11-21T10:55:03.056Z,8.90
2022-11-21T10:57:36.696Z,8.97
2022-11-21T11:00:12.557Z,9.10
2022-11-21T11:03:04.719Z,9.23
2022-11-21T11:05:36.633Z,9.39
2022-11-21T11:08:10.327Z,9.37
2022-11-21T11:10:40.927Z,9.34
2022-11-21T11:13:51.150Z,9.41
2022-11-21T11:16:22.053Z,9.26
2022-11-21T11:19:01.287Z,9.28
2022-11-21T11:21:46.541Z,9.32
2022-11-21T11:24:17.408Z,9.30
2022-11-21T11:26:48.718Z,9.23
2022-11-21T11:29:21.823Z,9.23
2022-11-21T11:32:20.645Z,9.17
2022-11-21T11:35:14.127Z,9.15
2022-11-21T11:37:43.084Z,9.21
2022-11-21T11:40:38.235Z,9.18
2022-11-21T11:43:44.927Z,9.15
2022-11-21T11:46:52.875Z,9.20
2022-11-21T11:49:58.262Z,9.27
2022-11-21T11:52:32.395Z,9.25
2022-11-21T11:55:06.451Z,9.27
2022-11-21T11:57:36.585Z,9.31
2022-11-21T12:00:25.031Z,9.34
2022-11-21T12:03:02.034Z,9.25
2022-11-21T12:05:30.747Z,9.28
2022-11-21T12:08:40.279Z,9.19
2022-11-21T12:11:24.799Z,9.04
2022-11-21T12:13:56.658Z,9.10
2022-11-21T12:16:26.661Z,9.16
2022-11-21T12:19:03.147Z,9.20
2022-11-21T12:21:30.025Z,9.31
2022-11-21T12:24:02.858Z,9.39
2022-11-21T12:26:53.947Z,9.54
2022-11-21T12:29:55.394Z,9.61
2022-11-21T12:32:34.090Z,9.60
2022-11-21T12:35:33.119Z,9.65
2022-11-21T12:38:06.703Z,9.57
2022-11-21T12:40:54.254Z,9.62
2022-11-21T12:43:41.910Z,9.57
2022-11-21T12:46:20.554Z,9.61
2022-11-21T12:49:39.944Z,9.67
2022-11-21T12:52:52.863Z,9.62
2022-11-21T12:55:40.043Z,9.56
2022-11-21T12:58:32.517Z,9.44
2022-11-21T13:01:06.303Z,9.46
2022-11-21T13:03:39.535Z,9.49
2022-11-21T13:06:12.299Z,9.53
2022-11-21T13:08:40.268Z,9.55
2022-11-21T13:11:52.629Z,9.50
2022-11-21T13:14:36.372Z,9.52
2022-11-21T13:17:33.442Z,9.49
2022-11-21T13:20:31.159Z,9.54
2022-11-21T13:23:06.325Z,9.54
2022-11-21T13:25:32.917Z,9.48
2022-11-21T13:28:11.969Z,9.52
2022-11-21T13:30:48.212Z,9.57
2022-11-21T13:33:35.267Z,9.53
2022-11-21T13:36:12.619Z,9.65
2022-11-21T13:38:51.298Z,9.71
2022-11-21T13:41:55.003Z,9.66
2022-11-21T13:44:31.320Z,9.62
2022-11-21T13:47:25.610Z,9.48
2022-11-21T13:50:01.190Z,9.46
2022-11-21T13:52:49.857Z,9.34
2022-11-21T13:55:44.322Z,9.31
2022-11-21T13:58:35.732Z,9.29
2022-11-21T14:01:48.752Z,9.37
2022-11-21T14:04:40.984Z,9.32
2022-11-21T14:07:23.110Z,9.28
2022-11-21T14:09:52.301Z,9.13
2022-11-21T14:12:44.636Z,9.18
2022-11-21T14:15:34.596Z,9.19
2022-11-21T14:18:01.981Z,9.10
2022-11-21T14:20:36.457Z,9.08
2022-11-21T14:23:06.093Z,9.13
2022-11-21T14:25:47.273Z,9.03
2022-11-21T14:28:26.843Z,9.05
2022-11-21T14:31:01.855Z,9.06
2022-11-21T14:33:32.581Z,9.07
2022-11-21T14:36:02.713Z,9.04
2022-11-21T14:38:36.259Z,8.94
2022-11-21T14:41:18.464Z,8.99
2022-11-21T14:43:44.982Z,9.02
2022-11-21T14:46:16.422Z,8.95
2022-11-21T14:48:43.306Z,8.96
2022-11-21T14:51:14.916Z,8.91
2022-11-21T14:53:43.588Z,8.87
2022-11-21T14:56:19.798Z,8.81
2022-11-21T14:58:47.108Z,8.77
2022-11-21T15:01:23.231Z,8.80
2022-11-21T15:03:57.052Z,8.72
2022-11-21T15:06:24.905Z,8.74
2022-11-21T15:09:58.930Z,8.67
2022-11-21T15:11:47.205Z,8.71
2022-11-21T15:14:35.827Z,8.67
2022-11-21T15:17:06.287Z,8.70
2022-11-21T15:19:33.238Z,8.71
2022-11-21T15:22:04.119Z,8.60
2022-11-21T15:24:40.072Z,8.64
2022-11-21T15:27:28.595Z,8.64
2022-11-21T15:30:20.224Z,8.60
2022-11-21T15:33:02.805Z,8.58
2022-11-21T15:35:48.495Z,8.57
2022-11-21T15:38:26.578Z,8.60
2022-11-21T15:41:09.440Z,8.56
2022-11-21T15:46:42.421Z,8.63
2022-11-21T15:52:07.593Z,8.69
2022-11-21T15:54:38.990Z,8.73
2022-11-21T15:57:05.673Z,8.69
2022-11-21T15:57:12.890Z,8.67
2022-11-21T15:57:15.619Z,8.57
2022-11-21T15:59:32.686Z,8.64
2022-11-21T16:01:59.436Z,8.64
2022-11-21T16:04:26.478Z,8.65
2022-11-21T16:06:56.138Z,8.63
2022-11-21T16:09:27.293Z,8.60
2022-11-21T16:12:21.323Z,8.60
2022-11-21T16:14:48.129Z,8.57
2022-11-21T16:17:15.658Z,8.59
2022-11-21T16:19:42.358Z,8.60
2022-11-21T16:22:09.178Z,8.58
2022-11-21T16:24:35.853Z,8.54
2022-11-21T16:27:02.732Z,8.54
2022-11-21T16:29:29.762Z,8.56
2022-11-21T16:31:56.563Z,8.47
2022-11-21T16:34:23.182Z,8.47
2022-11-21T16:36:50.646Z,8.48
2022-11-21T16:39:18.947Z,8.52
2022-11-21T16:41:46.717Z,8.48
2022-11-21T16:44:15.583Z,8.46
2022-11-21T16:46:43.867Z,8.47
2022-11-21T16:49:10.565Z,8.43
2022-11-21T16:51:37.841Z,8.38
2022-11-21T16:54:08.767Z,8.47
2022-11-21T16:56:35.889Z,8.42
2022-11-21T16:59:02.396Z,8.41
2022-11-21T17:01:29.056Z,8.41
2022-11-21T17:03:55.745Z,8.38
2022-11-21T17:06:27.029Z,8.37
2022-11-21T17:08:53.873Z,8.38
2022-11-21T17:11:29.462Z,8.40
2022-11-21T17:13:59.895Z,8.36
2022-11-21T17:16:27.334Z,8.34
2022-11-21T17:18:55.473Z,8.36
2022-11-21T17:21:24.069Z,8.31
2022-11-21T17:23:51.107Z,8.33
2022-11-21T17:26:21.587Z,8.27
2022-11-21T17:28:54.091Z,8.34
2022-11-21T17:31:21.703Z,8.24
2022-11-21T17:33:54.683Z,8.32
2022-11-21T17:36:23.172Z,8.33
2022-11-21T17:38:50.093Z,8.26
2022-11-21T17:41:18.458Z,8.34
2022-11-21T17:43:47.181Z,8.45
2022-11-21T17:46:18.090Z,8.45
2022-11-21T17:48:52.904Z,8.44
2022-11-21T17:51:24.003Z,8.36
2022-11-21T17:53:51.464Z,8.43
2022-11-21T17:56:22.959Z,8.38
2022-11-21T17:58:51.321Z,8.48
2022-11-21T18:01:22.075Z,8.52
2022-11-21T18:03:56.634Z,8.58
2022-11-21T18:06:23.971Z,8.54
2022-11-21T18:08:50.852Z,8.55
2022-11-21T18:11:21.051Z,8.59
2022-11-21T18:13:48.774Z,8.61
2022-11-21T18:16:20.048Z,8.58
2022-11-21T18:18:46.764Z,8.58
2022-11-21T18:21:15.767Z,8.58
2022-11-21T18:23:44.126Z,8.53
2022-11-21T18:26:15.391Z,8.51
2022-11-21T18:28:42.450Z,8.49
2022-11-21T18:31:12.831Z,8.45
2022-11-21T18:33:42.693Z,8.45
2022-11-21T18:36:11.525Z,8.43
2022-11-21T18:38:50.496Z,8.40
2022-11-21T18:41:27.397Z,8.25
2022-11-21T18:43:59.549Z,8.30
2022-11-21T18:46:28.779Z,8.29
2022-11-21T18:49:11.937Z,8.28
2022-11-21T18:51:38.609Z,8.28
2022-11-21T18:54:08.315Z,8.21
2022-11-21T18:56:36.593Z,8.24
2022-11-21T18:59:05.583Z,8.24
2022-11-21T19:01:34.562Z,8.20
2022-11-21T19:04:01.334Z,8.12
2022-11-21T19:06:28.802Z,8.10
2022-11-21T19:08:57.324Z,7.98
2022-11-21T19:11:27.076Z,8.12
2022-11-21T19:13:55.753Z,8.13
2022-11-21T19:16:24.858Z,8.07
2022-11-21T19:21:41.896Z,8.07
2022-11-21T19:24:19.496Z,8.11
2022-11-21T19:26:46.461Z,8.09
2022-11-21T19:29:13.084Z,8.07
2022-11-21T19:31:45.346Z,8.04
2022-11-21T19:34:14.408Z,8.05
2022-11-21T19:36:41.512Z,8.06
2022-11-21T19:39:09.114Z,8.05
2022-11-21T19:41:35.960Z,8.04
2022-11-21T19:44:03.350Z,8.03
2022-11-21T19:46:35.494Z,8.06
2022-11-21T19:49:04.641Z,7.99
2022-11-21T19:51:36.352Z,8.00
2022-11-21T19:54:07.047Z,8.00
2022-11-21T19:56:34.373Z,7.99
2022-11-21T19:59:01.173Z,7.93
2022-11-21T20:01:30.035Z,7.95
2022-11-21T20:04:00.380Z,7.94
2022-11-21T20:06:42.289Z,7.96
2022-11-21T20:09:12.216Z,7.95
2022-11-21T20:11:52.788Z,7.98
2022-11-21T20:14:28.519Z,7.97
2022-11-21T20:16:55.571Z,7.98
2022-11-21T20:19:24.686Z,7.97
2022-11-21T20:21:52.329Z,7.99
2022-11-21T20:24:19.274Z,8.00
2022-11-21T20:26:45.902Z,7.97
2022-11-21T20:29:14.065Z,7.95
2022-11-21T20:31:41.189Z,7.94
2022-11-21T20:34:12.583Z,8.01
2022-11-21T20:36:40.355Z,7.93
2022-11-21T20:39:13.131Z,7.93
2022-11-21T20:41:41.575Z,7.91
2022-11-21T20:45:07.274Z,7.86
2022-11-21T20:47:00.767Z,7.95
2022-11-21T20:49:27.777Z,8.03
2022-11-21T20:53:43.768Z,8.01
2022-11-21T20:54:41.209Z,7.97
2022-11-21T20:57:14.274Z,8.07
2022-11-21T20:59:44.284Z,7.96
2022-11-21T21:02:12.389Z,7.98
2022-11-21T21:04:39.543Z,8.09
2022-11-21T21:07:06.166Z,7.96
2022-11-21T21:09:32.777Z,8.00
2022-11-21T21:11:59.327Z,8.04
2022-11-21T21:14:25.939Z,7.93
2022-11-21T21:16:52.473Z,8.06
2022-11-21T21:19:21.974Z,7.90
2022-11-21T21:21:49.169Z,8.05
2022-11-21T21:24:16.028Z,8.04
2022-11-21T21:26:47.631Z,7.96
2022-11-21T21:29:21.048Z,8.02
2022-11-21T21:31:52.613Z,7.96
2022-11-21T21:34:21.190Z,7.96
2022-11-21T21:36:48.549Z,7.90
2022-11-21T21:39:15.459Z,7.96
2022-11-21T21:41:46.445Z,7.86
2022-11-21T21:44:15.130Z,7.92
2022-11-21T21:46:41.937Z,7.86
2022-11-21T21:49:08.849Z,7.96
2022-11-21T21:51:37.317Z,7.97
2022-11-21T21:54:04.880Z,7.96
2022-11-21T21:56:31.462Z,7.94
2022-11-21T21:58:58.713Z,8.05
2022-11-21T22:01:31.074Z,8.07
2022-11-21T22:04:10.280Z,8.14
2022-11-21T22:06:37.074Z,8.25
2022-11-21T22:09:22.969Z,8.23
2022-11-21T22:11:52.757Z,8.24
2022-11-21T22:14:44.017Z,8.26
2022-11-21T22:17:15.473Z,8.16
2022-11-21T22:25:23.176Z,8.23
2022-11-21T22:27:50.186Z,8.24
2022-11-21T22:30:25.755Z,8.25
2022-11-21T22:35:50.603Z,8.26
2022-11-21T22:39:18.313Z,8.21
2022-11-21T22:41:47.329Z,8.34
2022-11-21T22:44:14.557Z,8.32
2022-11-21T22:46:45.360Z,8.28
2022-11-21T22:49:12.007Z,8.29
2022-11-21T22:51:38.619Z,8.29
2022-11-21T22:54:05.299Z,8.39
2022-11-21T22:56:31.812Z,8.25
2022-11-21T22:58:58.813Z,8.32
2022-11-21T23:01:26.260Z,8.38
2022-11-21T23:03:53.630Z,8.40
2022-11-21T23:06:23.462Z,8.36
2022-11-21T23:08:51.540Z,8.46
2022-11-21T23:11:22.866Z,8.46
2022-11-21T23:13:50.956Z,8.46
2022-11-21T23:16:18.544Z,8.45
2022-11-21T23:18:45.740Z,8.53
2022-11-21T23:21:13.088Z,8.47
2022-11-21T23:23:39.825Z,8.43
2022-11-21T23:26:06.712Z,8.48
2022-11-21T23:28:33.714Z,8.46
2022-11-21T23:31:00.178Z,8.43
2022-11-21T23:33:26.964Z,8.43
2022-11-21T23:35:53.663Z,8.42
2022-11-21T23:38:21.803Z,8.31
2022-11-21T23:40:49.931Z,8.16
2022-11-21T23:43:20.339Z,8.09
2022-11-21T23:45:51.648Z,8.16
2022-11-21T23:48:19.216Z,8.24
2022-11-21T23:50:47.083Z,8.30
2022-11-21T23:53:14.422Z,8.32
2022-11-21T23:55:42.339Z,8.39
2022-11-21T23:58:09.161Z,8.36
